KOTH 251020Z 2510/2606 07005KT P6SM SKC
FM252000 36012KT P6SM SKC
FM260300 36007KT P6SM SKC
From batch tds/tafs/production/2023/1/25/h10_m29_tafs.cache.xml
Issued (10 days ago)
Forecasts
2510/2520 7005KT P6SM SKC

---
fcst_time_to: '2023-01-25T20:00:00Z'
sky_condition:
- sky_cover: SKC
wind_speed_kt: '5'
fcst_time_from: '2023-01-25T10:00:00Z'
wind_dir_degrees: '70'
visibility_statute_mi: '6.21'

FM252000 36012KT P6SM SKC

---
fcst_time_to: '2023-01-26T03:00:00Z'
sky_condition:
- sky_cover: SKC
wind_speed_kt: '12'
fcst_time_from: '2023-01-25T20:00:00Z'
change_indicator: FM
wind_dir_degrees: '360'
visibility_statute_mi: '6.21'

FM260300 36007KT P6SM SKC

---
fcst_time_to: '2023-01-26T06:00:00Z'
sky_condition:
- sky_cover: SKC
wind_speed_kt: '7'
fcst_time_from: '2023-01-26T03:00:00Z'
change_indicator: FM
wind_dir_degrees: '360'
visibility_statute_mi: '6.21'

talk